createdAt,value
2023-03-12T00:01:18.884Z,3.00
2023-03-12T00:03:49.313Z,3.10
2023-03-12T00:06:18.054Z,3.10
2023-03-12T00:08:46.392Z,3.10
2023-03-12T00:11:19.439Z,3.10
2023-03-12T00:13:51.273Z,3.10
2023-03-12T00:16:19.880Z,3.10
2023-03-12T00:18:51.431Z,3.10
2023-03-12T00:21:21.281Z,3.00
2023-03-12T00:23:50.389Z,3.00
2023-03-12T00:26:19.970Z,3.00
2023-03-12T00:28:49.393Z,3.10
2023-03-12T00:31:20.932Z,3.10
2023-03-12T00:33:51.858Z,3.10
2023-03-12T00:36:21.728Z,3.10
2023-03-12T00:38:50.239Z,3.10
2023-03-12T00:41:19.654Z,3.10
2023-03-12T00:43:47.904Z,3.10
2023-03-12T00:46:16.343Z,3.10
2023-03-12T00:48:45.469Z,3.10
2023-03-12T00:51:14.982Z,3.10
2023-03-12T00:53:43.377Z,3.00
2023-03-12T00:56:12.673Z,3.10
2023-03-12T00:58:42.766Z,3.00
2023-03-12T01:01:11.661Z,3.00
2023-03-12T01:03:39.900Z,2.70
2023-03-12T01:06:08.576Z,2.70
2023-03-12T01:08:38.147Z,2.60
2023-03-12T01:11:06.984Z,2.60
2023-03-12T01:13:35.159Z,2.40
2023-03-12T01:16:03.278Z,2.30
2023-03-12T01:18:31.505Z,2.50
2023-03-12T01:21:00.435Z,2.60
2023-03-12T01:23:28.660Z,2.70
2023-03-12T01:25:59.477Z,2.80
2023-03-12T01:28:28.187Z,2.80
2023-03-12T01:30:56.476Z,2.80
2023-03-12T01:33:24.598Z,2.90
2023-03-12T01:35:52.908Z,2.90
2023-03-12T01:38:21.574Z,2.90
2023-03-12T01:40:49.699Z,3.00
2023-03-12T01:43:29.033Z,2.90
2023-03-12T01:46:17.680Z,3.00
2023-03-12T01:48:49.997Z,3.00
2023-03-12T01:51:19.804Z,3.00
2023-03-12T01:53:52.026Z,3.00
2023-03-12T01:56:21.697Z,3.00
2023-03-12T01:58:55.660Z,3.00
2023-03-12T02:01:25.464Z,3.10
2023-03-12T02:04:00.005Z,3.10
2023-03-12T02:06:34.116Z,3.10
2023-03-12T02:09:04.017Z,3.10
2023-03-12T02:11:32.563Z,3.10
2023-03-12T02:14:02.631Z,3.10
2023-03-12T02:16:31.399Z,3.10
2023-03-12T02:19:02.689Z,3.10
2023-03-12T02:21:35.348Z,3.10
2023-03-12T02:24:09.531Z,3.10
2023-03-12T02:26:41.655Z,3.10
2023-03-12T02:29:11.602Z,3.10
2023-03-12T02:31:45.556Z,3.20
2023-03-12T02:34:14.839Z,3.20
2023-03-12T02:36:43.001Z,3.30
2023-03-12T02:39:12.861Z,3.30
2023-03-12T02:41:45.297Z,3.40
2023-03-12T02:44:17.512Z,3.50
2023-03-12T02:46:49.157Z,3.60
2023-03-12T02:49:19.360Z,3.60
2023-03-12T02:51:49.217Z,3.70
2023-03-12T02:54:19.949Z,3.70
2023-03-12T02:56:50.451Z,3.80
2023-03-12T02:59:21.947Z,3.90
2023-03-12T03:01:54.760Z,3.90
2023-03-12T03:04:23.921Z,4.00
2023-03-12T03:06:52.685Z,4.00
2023-03-12T03:09:22.512Z,4.00
2023-03-12T03:11:53.135Z,4.10
2023-03-12T03:14:23.325Z,4.00
2023-03-12T03:16:52.526Z,4.10
2023-03-12T03:19:23.979Z,4.10
2023-03-12T03:21:52.310Z,4.10
2023-03-12T03:24:21.003Z,4.10
2023-03-12T03:26:49.383Z,4.20
2023-03-12T03:29:18.944Z,4.30
2023-03-12T03:31:47.429Z,4.30
2023-03-12T03:34:15.459Z,4.30
2023-03-12T03:36:43.819Z,4.30
2023-03-12T03:39:16.281Z,4.40
2023-03-12T03:41:46.442Z,4.40
2023-03-12T03:44:18.368Z,4.40
2023-03-12T03:46:47.856Z,4.40
2023-03-12T03:49:16.825Z,4.40
2023-03-12T03:51:45.362Z,4.50
2023-03-12T03:54:17.694Z,4.50
2023-03-12T03:56:47.599Z,4.60
2023-03-12T03:59:16.378Z,4.70
2023-03-12T04:01:46.911Z,4.60
2023-03-12T04:04:15.630Z,4.70
2023-03-12T04:06:43.900Z,4.70
2023-03-12T04:09:12.302Z,4.70
2023-03-12T04:11:42.064Z,4.80
2023-03-12T04:14:12.285Z,4.80
2023-03-12T04:16:43.086Z,4.80
2023-03-12T04:19:13.203Z,4.80
2023-03-12T04:21:41.711Z,4.80
2023-03-12T04:24:15.103Z,4.80
2023-03-12T04:26:43.464Z,4.80
2023-03-12T04:29:12.197Z,4.90
2023-03-12T04:31:41.579Z,4.80
2023-03-12T04:34:12.584Z,4.90
2023-03-12T04:36:45.359Z,4.90
2023-03-12T04:39:14.891Z,4.90
2023-03-12T04:41:43.197Z,5.00
2023-03-12T04:44:16.213Z,4.90
2023-03-12T04:46:44.816Z,5.00
2023-03-12T04:49:16.986Z,5.00
2023-03-12T04:51:46.701Z,5.00
2023-03-12T04:54:14.837Z,5.00
2023-03-12T04:56:43.923Z,5.00
2023-03-12T04:59:12.196Z,5.00
2023-03-12T05:01:41.714Z,4.90
2023-03-12T05:04:16.667Z,4.90
2023-03-12T05:06:46.550Z,4.90
2023-03-12T05:09:14.905Z,4.80
2023-03-12T05:11:44.037Z,4.80
2023-03-12T05:14:17.521Z,4.80
2023-03-12T05:16:47.678Z,4.90
2023-03-12T05:19:16.213Z,4.90
2023-03-12T05:21:46.664Z,4.90
2023-03-12T05:24:14.983Z,4.90
2023-03-12T05:26:44.568Z,4.50
2023-03-12T05:29:18.678Z,4.50
2023-03-12T05:31:46.931Z,4.10
2023-03-12T05:34:15.580Z,4.30
2023-03-12T05:36:47.319Z,4.10
2023-03-12T05:39:20.292Z,4.30
2023-03-12T05:41:49.166Z,4.50
2023-03-12T05:44:19.925Z,4.60
2023-03-12T05:46:53.254Z,4.70
2023-03-12T05:49:25.149Z,4.80
2023-03-12T05:51:56.903Z,4.80
2023-03-12T05:54:25.645Z,4.90
2023-03-12T05:56:56.136Z,4.90
2023-03-12T05:59:30.204Z,4.70
2023-03-12T06:01:59.577Z,4.80
2023-03-12T06:04:28.462Z,4.80
2023-03-12T06:06:58.089Z,4.70
2023-03-12T06:09:26.277Z,4.80
2023-03-12T06:11:54.922Z,4.80
2023-03-12T06:14:23.239Z,4.90
2023-03-12T06:16:52.003Z,4.90
2023-03-12T06:19:20.641Z,4.80
2023-03-12T06:21:51.004Z,4.80
2023-03-12T06:24:20.761Z,4.80
2023-03-12T06:26:51.697Z,4.80
2023-03-12T06:29:19.770Z,4.80
2023-03-12T06:31:48.411Z,4.80
2023-03-12T06:34:17.222Z,4.70
2023-03-12T06:36:45.594Z,4.80
2023-03-12T06:39:13.797Z,4.80
2023-03-12T06:41:43.226Z,4.80
2023-03-12T06:44:11.358Z,4.80
2023-03-12T06:46:39.639Z,4.80
2023-03-12T06:49:07.963Z,4.80
2023-03-12T06:51:36.079Z,4.80
2023-03-12T06:54:04.686Z,4.80
2023-03-12T06:56:33.032Z,4.90
2023-03-12T06:59:02.588Z,4.90
2023-03-12T07:01:30.744Z,5.00
2023-03-12T07:03:58.906Z,4.90
2023-03-12T07:06:27.225Z,4.90
2023-03-12T07:08:55.585Z,5.00
2023-03-12T07:11:23.825Z,5.00
2023-03-12T07:13:52.430Z,5.20
2023-03-12T07:16:22.069Z,5.30
2023-03-12T07:18:50.249Z,5.40
2023-03-12T07:21:22.731Z,5.50
2023-03-12T07:23:51.421Z,5.60
2023-03-12T07:26:19.955Z,5.70
2023-03-12T07:28:48.149Z,5.80
2023-03-12T07:31:16.400Z,5.80
2023-03-12T07:33:46.125Z,5.90
2023-03-12T07:36:14.579Z,6.00
2023-03-12T07:38:42.758Z,6.10
2023-03-12T07:41:10.957Z,6.10
2023-03-12T07:43:39.191Z,6.20
2023-03-12T07:46:07.381Z,6.20
2023-03-12T07:48:35.574Z,6.30
2023-03-12T07:51:05.709Z,6.30
2023-03-12T07:53:33.912Z,6.40
2023-03-12T07:56:02.171Z,6.50
2023-03-12T07:58:30.476Z,6.60
2023-03-12T08:00:58.854Z,6.60
2023-03-12T08:03:27.192Z,6.60
2023-03-12T08:06:00.170Z,6.60
2023-03-12T08:08:31.023Z,6.70
2023-03-12T08:10:59.310Z,6.60
2023-03-12T08:13:28.449Z,6.60
2023-03-12T08:15:56.606Z,6.70
2023-03-12T08:18:25.704Z,6.70
2023-03-12T08:20:54.601Z,6.70
2023-03-12T08:23:23.851Z,6.80
2023-03-12T08:25:54.591Z,6.80
2023-03-12T08:28:24.697Z,6.80
2023-03-12T08:30:55.100Z,6.90
2023-03-12T08:33:24.101Z,6.90
2023-03-12T08:35:52.399Z,6.90
2023-03-12T08:38:21.207Z,7.00
2023-03-12T08:40:58.627Z,7.00
2023-03-12T08:43:29.273Z,7.00
2023-03-12T08:45:58.650Z,7.00
2023-03-12T08:48:27.302Z,7.00
2023-03-12T08:50:57.178Z,7.10
2023-03-12T08:53:25.806Z,7.20
2023-03-12T08:55:54.676Z,7.30
2023-03-12T08:58:25.883Z,7.30
2023-03-12T09:00:55.283Z,7.30
2023-03-12T09:03:24.356Z,7.40
2023-03-12T09:06:02.833Z,7.50
2023-03-12T09:08:31.006Z,7.60
2023-03-12T09:10:59.093Z,7.60
2023-03-12T09:13:40.700Z,7.70
2023-03-12T09:16:16.765Z,7.70
2023-03-12T09:18:44.901Z,7.90
2023-03-12T09:21:12.983Z,7.90
2023-03-12T09:23:41.331Z,8.00
2023-03-12T09:26:10.935Z,8.10
2023-03-12T09:28:40.474Z,8.10
2023-03-12T09:31:08.812Z,8.20
2023-03-12T09:33:37.032Z,8.40
2023-03-12T09:36:05.844Z,8.50
2023-03-12T09:38:35.677Z,8.70
2023-03-12T09:41:06.282Z,8.90
2023-03-12T09:43:39.648Z,9.10
2023-03-12T09:46:16.205Z,9.30
2023-03-12T09:48:47.395Z,9.40
2023-03-12T09:51:21.333Z,9.40
2023-03-12T09:53:53.124Z,9.50
2023-03-12T09:56:23.308Z,9.60
2023-03-12T09:58:54.836Z,9.70
2023-03-12T10:01:37.638Z,9.60
2023-03-12T10:04:20.938Z,9.80
2023-03-12T10:06:55.631Z,9.80
2023-03-12T10:10:03.306Z,9.90
2023-03-12T10:12:40.430Z,10.00
2023-03-12T10:15:31.009Z,10.10
2023-03-12T10:18:10.224Z,10.30
2023-03-12T10:20:59.619Z,10.40
2023-03-12T10:23:38.884Z,10.50
2023-03-12T10:26:11.196Z,10.50
2023-03-12T10:28:44.430Z,10.70
2023-03-12T10:31:19.545Z,10.80
2023-03-12T10:33:53.746Z,11.00
2023-03-12T10:36:25.213Z,11.20
2023-03-12T10:38:53.481Z,11.30
2023-03-12T10:41:26.826Z,11.30
2023-03-12T10:43:58.168Z,11.30
2023-03-12T10:46:46.944Z,11.30
2023-03-12T10:49:28.989Z,11.30
2023-03-12T10:51:59.180Z,11.30
2023-03-12T10:54:32.840Z,11.40
2023-03-12T10:57:01.740Z,11.50
2023-03-12T10:59:33.694Z,11.60
2023-03-12T11:02:02.797Z,11.60
2023-03-12T11:04:33.788Z,11.60
2023-03-12T11:07:26.734Z,11.60
2023-03-12T11:10:15.360Z,11.70
2023-03-12T11:12:54.544Z,11.80
2023-03-12T11:15:24.585Z,11.90
2023-03-12T11:17:53.300Z,11.90
2023-03-12T11:20:31.017Z,11.90
2023-03-12T11:22:59.217Z,11.90
2023-03-12T11:25:29.181Z,11.90
2023-03-12T11:28:00.796Z,11.80
2023-03-12T11:30:38.853Z,11.90
2023-03-12T11:33:07.332Z,11.90
2023-03-12T11:35:46.812Z,12.00
2023-03-12T11:38:19.794Z,11.90
2023-03-12T11:41:03.098Z,11.90
2023-03-12T11:43:49.964Z,11.80
2023-03-12T11:46:30.617Z,11.90
2023-03-12T11:49:10.686Z,11.90
2023-03-12T11:51:47.773Z,11.80
2023-03-12T11:54:48.111Z,11.80
2023-03-12T11:57:25.590Z,11.60
2023-03-12T12:00:09.166Z,11.50
2023-03-12T12:03:15.420Z,11.40
2023-03-12T12:05:54.338Z,11.30
2023-03-12T12:08:36.259Z,11.20
2023-03-12T12:11:13.409Z,11.10
2023-03-12T12:13:52.491Z,11.00
2023-03-12T12:16:47.228Z,11.00
2023-03-12T12:19:24.709Z,11.00
2023-03-12T12:22:04.666Z,11.00
2023-03-12T12:24:55.778Z,11.10
2023-03-12T12:27:27.226Z,11.10
2023-03-12T12:30:09.025Z,11.10
2023-03-12T12:33:01.092Z,11.10
2023-03-12T12:35:34.747Z,11.10
2023-03-12T12:38:10.328Z,11.10
2023-03-12T12:40:43.662Z,11.10
2023-03-12T12:43:28.138Z,11.10
2023-03-12T12:46:00.452Z,11.20
2023-03-12T12:48:33.603Z,11.30
2023-03-12T12:51:05.563Z,11.30
2023-03-12T12:53:42.103Z,11.40
2023-03-12T12:56:18.326Z,11.50
2023-03-12T12:59:11.265Z,11.50
2023-03-12T13:01:39.984Z,11.60
2023-03-12T13:04:13.168Z,11.60
2023-03-12T13:06:57.755Z,11.70
2023-03-12T13:09:41.201Z,11.80
2023-03-12T13:12:16.306Z,11.80
2023-03-12T13:14:46.147Z,11.90
2023-03-12T13:17:29.572Z,12.00
2023-03-12T13:20:17.227Z,12.00
2023-03-12T13:23:27.808Z,12.10
2023-03-12T13:26:04.435Z,12.10
2023-03-12T13:29:20.036Z,12.20
2023-03-12T13:31:48.560Z,12.20
2023-03-12T13:34:46.568Z,12.30
2023-03-12T13:37:30.186Z,12.40
2023-03-12T13:40:01.930Z,12.60
2023-03-12T13:42:41.973Z,12.80
2023-03-12T13:45:27.569Z,13.00
2023-03-12T13:48:00.998Z,13.20
2023-03-12T13:50:31.376Z,13.30
2023-03-12T13:53:06.126Z,13.30
2023-03-12T13:55:36.024Z,13.50
2023-03-12T13:58:10.050Z,13.60
2023-03-12T14:00:42.583Z,13.60
2023-03-12T14:03:17.354Z,13.70
2023-03-12T14:05:51.582Z,13.90
2023-03-12T14:08:34.393Z,14.00
2023-03-12T14:11:14.084Z,14.00
2023-03-12T14:13:58.010Z,13.90
2023-03-12T14:16:36.339Z,13.70
2023-03-12T14:19:06.121Z,13.60
2023-03-12T14:21:40.131Z,13.50
2023-03-12T14:24:11.884Z,13.40
2023-03-12T14:26:40.605Z,13.40
2023-03-12T14:29:12.262Z,13.40
2023-03-12T14:31:42.506Z,13.40
2023-03-12T14:34:17.724Z,13.40
2023-03-12T14:36:51.350Z,13.40
2023-03-12T14:39:28.715Z,13.40
2023-03-12T14:42:01.157Z,13.40
2023-03-12T14:44:31.014Z,13.40
2023-03-12T14:47:02.670Z,13.40
2023-03-12T14:49:32.679Z,13.40
2023-03-12T14:52:00.783Z,13.40
2023-03-12T14:54:29.811Z,13.40
2023-03-12T14:56:58.151Z,13.50
2023-03-12T14:59:29.543Z,13.50
2023-03-12T15:02:02.902Z,13.50
2023-03-12T15:04:34.623Z,13.60
2023-03-12T15:07:07.192Z,13.50
2023-03-12T15:09:37.379Z,13.50
2023-03-12T15:12:08.851Z,13.50
2023-03-12T15:14:42.003Z,13.40
2023-03-12T15:17:17.091Z,13.40
2023-03-12T15:19:46.449Z,13.40
2023-03-12T15:22:17.975Z,13.50
2023-03-12T15:24:46.573Z,13.40
2023-03-12T15:27:24.222Z,13.40
2023-03-12T15:29:53.273Z,13.50
2023-03-12T15:32:24.962Z,13.40
2023-03-12T15:34:54.278Z,13.40
2023-03-12T15:37:29.624Z,13.40
2023-03-12T15:39:58.330Z,13.40
2023-03-12T15:42:28.582Z,13.40
2023-03-12T15:44:58.890Z,13.30
2023-03-12T15:47:31.026Z,13.30
2023-03-12T15:50:02.427Z,13.30
2023-03-12T15:52:32.765Z,13.40
2023-03-12T15:55:22.643Z,13.40
2023-03-12T15:57:52.347Z,13.30
2023-03-12T16:00:24.881Z,13.30
2023-03-12T16:02:59.417Z,13.30
2023-03-12T16:05:31.227Z,13.30
2023-03-12T16:08:01.583Z,13.20
2023-03-12T16:10:30.129Z,13.20
2023-03-12T16:13:02.480Z,13.30
2023-03-12T16:15:34.007Z,13.30
2023-03-12T16:18:03.701Z,13.30
2023-03-12T16:20:32.229Z,13.30
2023-03-12T16:23:00.361Z,13.30
2023-03-12T16:25:28.505Z,13.40
2023-03-12T16:27:59.075Z,13.40
2023-03-12T16:30:29.700Z,13.40
2023-03-12T16:32:59.346Z,13.50
2023-03-12T16:35:31.309Z,13.40
2023-03-12T16:38:00.882Z,13.30
2023-03-12T16:40:33.896Z,13.20
2023-03-12T16:43:04.491Z,13.20
2023-03-12T16:45:35.653Z,13.20
2023-03-12T16:48:06.052Z,13.10
2023-03-12T16:50:35.520Z,13.20
2023-03-12T16:53:04.882Z,13.10
2023-03-12T16:55:45.328Z,13.20
2023-03-12T16:58:15.871Z,13.10
2023-03-12T17:00:44.372Z,13.20
2023-03-12T17:03:19.557Z,13.10
2023-03-12T17:05:49.078Z,13.10
2023-03-12T17:08:17.221Z,13.00
2023-03-12T17:10:46.011Z,13.10
2023-03-12T17:13:20.676Z,13.00
2023-03-12T17:15:49.368Z,13.00
2023-03-12T17:18:18.267Z,13.00
2023-03-12T17:20:49.101Z,13.00
2023-03-12T17:23:17.301Z,13.00
2023-03-12T17:25:46.363Z,13.00
2023-03-12T17:28:15.282Z,13.00
2023-03-12T17:30:44.298Z,13.00
2023-03-12T17:33:15.023Z,13.10
2023-03-12T17:35:43.958Z,13.10
2023-03-12T17:38:13.882Z,13.10
2023-03-12T17:40:42.386Z,13.00
2023-03-12T17:43:10.901Z,13.10
2023-03-12T17:45:39.058Z,13.00
2023-03-12T17:48:07.586Z,13.00
2023-03-12T17:50:36.724Z,12.90
2023-03-12T17:53:04.953Z,12.90
2023-03-12T17:55:34.507Z,12.80
2023-03-12T17:58:03.393Z,12.80
2023-03-12T18:00:31.783Z,12.70
2023-03-12T18:03:00.056Z,12.70
2023-03-12T18:05:28.446Z,12.60
2023-03-12T18:07:56.722Z,12.60
2023-03-12T18:10:24.862Z,12.50
2023-03-12T18:12:54.427Z,12.50
2023-03-12T18:15:22.588Z,12.40
2023-03-12T18:17:52.426Z,12.30
2023-03-12T18:20:32.171Z,12.20
2023-03-12T18:23:05.716Z,12.30
2023-03-12T18:25:33.940Z,12.40
2023-03-12T18:28:03.543Z,12.30
2023-03-12T18:30:31.729Z,12.30
2023-03-12T18:33:00.090Z,12.30
2023-03-12T18:35:29.903Z,12.10
2023-03-12T18:37:58.657Z,12.10
2023-03-12T18:40:27.642Z,12.10
2023-03-12T18:42:58.780Z,12.00
2023-03-12T18:45:29.221Z,12.00
2023-03-12T18:47:57.688Z,11.90
2023-03-12T18:50:26.135Z,11.80
2023-03-12T18:52:54.200Z,11.80
2023-03-12T18:55:22.263Z,11.80
2023-03-12T18:57:50.336Z,11.70
2023-03-12T19:00:19.611Z,11.70
2023-03-12T19:02:49.315Z,11.80
2023-03-12T19:05:18.173Z,11.70
2023-03-12T19:07:46.530Z,11.70
2023-03-12T19:10:15.369Z,11.70
2023-03-12T19:12:52.599Z,11.70
2023-03-12T19:15:23.929Z,11.70
2023-03-12T19:17:54.102Z,11.70
2023-03-12T19:20:22.637Z,11.70
2023-03-12T19:22:50.722Z,11.80
2023-03-12T19:25:19.987Z,11.80
2023-03-12T19:27:48.254Z,11.70
2023-03-12T19:30:16.876Z,11.70
2023-03-12T19:32:45.085Z,11.80
2023-03-12T19:35:16.166Z,11.90
2023-03-12T19:37:44.389Z,11.90
2023-03-12T19:40:14.003Z,11.90
2023-03-12T19:42:42.082Z,11.90
2023-03-12T19:45:11.303Z,12.00
2023-03-12T19:47:39.454Z,12.00
2023-03-12T19:50:08.835Z,12.00
2023-03-12T19:52:38.760Z,12.10
2023-03-12T19:55:07.414Z,12.00
2023-03-12T19:57:35.552Z,12.00
2023-03-12T20:00:07.262Z,11.90
2023-03-12T20:02:35.515Z,11.80
2023-03-12T20:05:03.968Z,11.70
2023-03-12T20:07:32.144Z,11.60
2023-03-12T20:10:01.772Z,11.50
2023-03-12T20:12:29.845Z,11.60
2023-03-12T20:14:57.908Z,11.50
2023-03-12T20:17:26.088Z,11.60
2023-03-12T20:19:55.972Z,11.60
2023-03-12T20:22:25.623Z,11.70
2023-03-12T20:24:54.011Z,11.60
2023-03-12T20:27:23.555Z,11.60
2023-03-12T20:29:51.794Z,11.70
2023-03-12T20:32:20.364Z,11.70
2023-03-12T20:34:48.448Z,11.70
2023-03-12T20:37:17.954Z,11.60
2023-03-12T20:39:46.059Z,11.50
2023-03-12T20:42:14.151Z,11.60
2023-03-12T20:44:43.587Z,11.70
2023-03-12T20:47:11.687Z,11.60
2023-03-12T20:49:39.756Z,11.50
2023-03-12T20:52:07.892Z,11.40
2023-03-12T20:54:35.930Z,11.30
2023-03-12T20:57:03.992Z,11.20
2023-03-12T20:59:32.082Z,11.10
2023-03-12T21:02:01.611Z,11.10
2023-03-12T21:04:29.669Z,11.00
2023-03-12T21:06:57.994Z,11.00
2023-03-12T21:09:26.057Z,11.00
2023-03-12T21:11:54.200Z,11.00
2023-03-12T21:14:22.310Z,11.00
2023-03-12T21:16:50.497Z,11.10
2023-03-12T21:19:19.989Z,11.00
2023-03-12T21:21:48.137Z,11.00
2023-03-12T21:24:16.193Z,11.10
2023-03-12T21:26:44.318Z,11.10
2023-03-12T21:29:12.440Z,11.20
2023-03-12T21:31:40.544Z,11.20
2023-03-12T21:34:09.633Z,11.20
2023-03-12T21:36:39.273Z,11.10
2023-03-12T21:39:07.429Z,11.10
2023-03-12T21:41:35.536Z,11.10
2023-03-12T21:44:03.670Z,11.10
2023-03-12T21:46:32.053Z,11.20
2023-03-12T21:49:00.672Z,11.10
2023-03-12T21:51:28.842Z,11.10
2023-03-12T21:53:59.778Z,11.10
2023-03-12T21:56:28.913Z,11.20
2023-03-12T21:58:58.150Z,11.20
2023-03-12T22:01:26.696Z,11.20
2023-03-12T22:03:55.135Z,11.30
2023-03-12T22:06:23.398Z,11.30
2023-03-12T22:08:52.384Z,11.30
2023-03-12T22:11:21.860Z,11.30
2023-03-12T22:13:50.092Z,11.30
2023-03-12T22:16:18.265Z,11.30
2023-03-12T22:18:47.352Z,11.40
2023-03-12T22:21:17.694Z,11.40
2023-03-12T22:23:47.908Z,11.40
2023-03-12T22:26:16.808Z,11.40
2023-03-12T22:28:49.178Z,11.40
2023-03-12T22:31:17.632Z,11.50
2023-03-12T22:33:46.330Z,11.40
2023-03-12T22:36:15.933Z,11.50
2023-03-12T22:38:44.561Z,11.50
2023-03-12T22:41:17.898Z,11.50
2023-03-12T22:43:48.269Z,11.50
2023-03-12T22:46:17.566Z,11.50
2023-03-12T22:48:46.302Z,11.50
2023-03-12T22:51:14.859Z,11.50
2023-03-12T22:53:42.995Z,11.50
2023-03-12T22:56:13.353Z,11.40
2023-03-12T22:58:41.748Z,11.50
2023-03-12T23:01:13.261Z,11.50
2023-03-12T23:03:42.622Z,11.50
2023-03-12T23:06:12.148Z,11.50
2023-03-12T23:08:40.740Z,11.50
2023-03-12T23:11:10.478Z,11.50
2023-03-12T23:13:41.440Z,11.50
2023-03-12T23:16:12.427Z,11.50
2023-03-12T23:18:41.666Z,11.50
2023-03-12T23:21:12.167Z,11.50
2023-03-12T23:23:42.129Z,11.50
2023-03-12T23:26:14.189Z,11.50
2023-03-12T23:28:42.361Z,11.50
2023-03-12T23:31:12.053Z,11.50
2023-03-12T23:33:40.719Z,11.50
2023-03-12T23:36:12.212Z,11.60
2023-03-12T23:38:40.592Z,11.60
2023-03-12T23:41:12.457Z,11.60
2023-03-12T23:43:40.609Z,11.60
2023-03-12T23:46:10.566Z,11.60
2023-03-12T23:48:41.201Z,11.60
2023-03-12T23:51:11.885Z,11.60
2023-03-12T23:53:41.563Z,11.70
2023-03-12T23:56:11.050Z,11.70
2023-03-12T23:58:39.334Z,11.70
